createdAt,value
2019-02-02T00:02:17.412Z,44.17
2019-02-02T00:04:48.966Z,50.53
2019-02-02T00:07:20.470Z,53.57
2019-02-02T00:09:52.212Z,48.83
2019-02-02T00:12:23.719Z,43.20
2019-02-02T00:14:55.267Z,45.37
2019-02-02T00:17:27.840Z,46.77
2019-02-02T00:19:59.305Z,45.57
2019-02-02T00:22:30.794Z,48.07
2019-02-02T00:25:02.322Z,50.27
2019-02-02T00:27:41.120Z,47.37
2019-02-02T00:30:17.176Z,47.17
2019-02-02T00:32:48.651Z,49.00
2019-02-02T00:35:20.368Z,48.50
2019-02-02T00:37:54.107Z,43.13
2019-02-02T00:40:27.658Z,46.37
2019-02-02T00:42:59.179Z,45.37
2019-02-02T00:45:34.623Z,49.47
2019-02-02T00:48:07.347Z,44.20
2019-02-02T00:50:39.005Z,44.43
2019-02-02T00:53:10.588Z,45.93
2019-02-02T00:55:42.188Z,45.13
2019-02-02T00:58:13.740Z,41.90
2019-02-02T01:00:46.445Z,47.30
2019-02-02T01:03:17.956Z,43.67
2019-02-02T01:05:49.859Z,44.90
2019-02-02T01:08:21.507Z,43.37
2019-02-02T01:10:53.036Z,41.57
2019-02-02T01:13:24.580Z,42.40
2019-02-02T01:15:56.172Z,42.90
2019-02-02T01:18:27.786Z,42.20
2019-02-02T01:20:59.468Z,49.93
2019-02-02T01:23:30.967Z,52.17
2019-02-02T01:26:02.525Z,55.53
2019-02-02T01:28:33.943Z,55.03
2019-02-02T01:31:05.521Z,56.30
2019-02-02T01:33:36.984Z,50.47
2019-02-02T01:36:08.576Z,46.90
2019-02-02T01:38:40.162Z,51.33
2019-02-02T01:41:11.739Z,48.70
2019-02-02T01:43:43.230Z,46.90
2019-02-02T01:46:14.816Z,44.87
2019-02-02T01:48:46.399Z,49.27
2019-02-02T01:51:18.012Z,50.93
2019-02-02T01:53:49.481Z,59.93
2019-02-02T01:56:22.152Z,56.27
2019-02-02T01:58:53.470Z,55.20
2019-02-02T02:01:27.054Z,51.70
2019-02-02T02:03:58.610Z,48.10
2019-02-02T02:06:30.202Z,46.20
2019-02-02T02:09:01.693Z,44.70
2019-02-02T02:11:34.818Z,43.23
2019-02-02T02:14:06.361Z,44.57
2019-02-02T02:16:38.123Z,45.27
2019-02-02T02:19:09.682Z,41.37
2019-02-02T02:21:41.210Z,43.17
2019-02-02T02:24:12.668Z,39.60
2019-02-02T02:26:44.198Z,39.87
2019-02-02T02:29:15.789Z,38.87
2019-02-02T02:31:47.272Z,40.53
2019-02-02T02:34:18.700Z,36.60
2019-02-02T02:36:50.236Z,37.60
2019-02-02T02:39:21.744Z,38.27
2019-02-02T02:41:53.229Z,40.57
2019-02-02T02:44:24.598Z,40.27
2019-02-02T02:46:55.974Z,45.07
2019-02-02T02:49:27.570Z,44.10
2019-02-02T02:51:58.998Z,46.17
2019-02-02T02:54:30.595Z,47.53
2019-02-02T02:57:02.105Z,48.50
2019-02-02T02:59:33.649Z,45.63
2019-02-02T03:02:05.513Z,45.13
2019-02-02T03:04:37.126Z,41.60
2019-02-02T03:07:08.850Z,42.10
2019-02-02T03:09:42.034Z,42.83
2019-02-02T03:12:13.636Z,40.83
2019-02-02T03:14:47.799Z,46.47
2019-02-02T03:17:18.932Z,39.40
2019-02-02T03:19:50.614Z,40.40
2019-02-02T03:22:22.069Z,42.27
2019-02-02T03:24:53.509Z,40.10
2019-02-02T03:27:24.860Z,37.83
2019-02-02T03:29:56.442Z,38.87
2019-02-02T03:32:27.881Z,41.50
2019-02-02T03:34:59.298Z,40.23
2019-02-02T03:37:30.634Z,38.10
2019-02-02T03:40:02.067Z,40.47
2019-02-02T03:42:33.790Z,38.50
2019-02-02T03:45:07.971Z,43.70
2019-02-02T03:47:42.426Z,47.00
2019-02-02T03:50:14.540Z,44.43
2019-02-02T03:52:46.197Z,44.17
2019-02-02T03:55:17.943Z,43.17
2019-02-02T03:57:49.744Z,44.50
2019-02-02T04:00:23.097Z,42.80
2019-02-02T04:03:04.803Z,38.33
2019-02-02T04:05:38.996Z,43.97
2019-02-02T04:08:10.583Z,42.03
2019-02-02T04:10:42.124Z,42.23
2019-02-02T04:13:13.783Z,41.03
2019-02-02T04:15:45.316Z,38.17
2019-02-02T04:18:17.805Z,40.57
2019-02-02T04:20:49.564Z,41.63
2019-02-02T04:23:20.991Z,38.53
2019-02-02T04:25:52.567Z,41.03
2019-02-02T04:28:24.132Z,35.90
2019-02-02T04:30:55.583Z,41.90
2019-02-02T04:33:27.197Z,37.57
2019-02-02T04:35:58.783Z,41.17
2019-02-02T04:38:30.330Z,38.20
2019-02-02T04:41:01.814Z,39.83
2019-02-02T04:43:33.389Z,41.60
2019-02-02T04:46:04.819Z,47.37
2019-02-02T04:48:36.583Z,41.67
2019-02-02T04:51:08.105Z,47.77
2019-02-02T04:53:39.717Z,48.63
2019-02-02T04:56:11.378Z,44.87
2019-02-02T04:58:42.826Z,43.10
2019-02-02T05:01:14.463Z,43.43
2019-02-02T05:03:46.105Z,45.23
2019-02-02T05:06:17.746Z,43.37
2019-02-02T05:08:49.330Z,44.13
2019-02-02T05:11:20.892Z,39.13
2019-02-02T05:13:52.377Z,46.17
2019-02-02T05:16:23.987Z,44.93
2019-02-02T05:18:55.496Z,42.00
2019-02-02T05:21:26.994Z,40.37
2019-02-02T05:23:58.622Z,40.87
2019-02-02T05:26:30.107Z,43.90
2019-02-02T05:29:01.662Z,40.50
2019-02-02T05:31:33.270Z,38.03
2019-02-02T05:34:05.101Z,39.97
2019-02-02T05:36:36.578Z,40.87
2019-02-02T05:39:09.088Z,37.40
2019-02-02T05:41:40.650Z,41.80
2019-02-02T05:44:12.300Z,46.67
2019-02-02T05:46:46.687Z,47.40
2019-02-02T05:49:25.456Z,49.30
2019-02-02T05:51:56.731Z,51.83
2019-02-02T05:54:28.250Z,53.07
2019-02-02T05:56:59.779Z,53.30
2019-02-02T05:59:31.288Z,55.50
2019-02-02T06:02:02.926Z,60.23
2019-02-02T06:04:46.826Z,57.00
2019-02-02T06:07:19.954Z,56.50
2019-02-02T06:09:56.470Z,56.63
2019-02-02T06:12:38.567Z,59.57
2019-02-02T06:15:01.971Z,59.97
2019-02-02T06:17:33.582Z,61.77
2019-02-02T06:20:16.853Z,62.13
2019-02-02T06:22:48.400Z,62.50
2019-02-02T06:25:23.620Z,65.00
2019-02-02T06:27:55.192Z,68.93
2019-02-02T06:31:00.055Z,64.30
2019-02-02T06:33:41.327Z,65.27
2019-02-02T06:36:20.693Z,67.37
2019-02-02T06:38:54.148Z,69.27
2019-02-02T06:41:25.608Z,68.70
2019-02-02T06:44:06.671Z,63.93
2019-02-02T06:46:43.695Z,68.30
2019-02-02T06:49:13.123Z,66.83
2019-02-02T06:51:44.555Z,66.47
2019-02-02T06:54:16.097Z,70.17
2019-02-02T06:56:47.767Z,64.27
2019-02-02T06:59:19.183Z,70.03
2019-02-02T07:01:53.014Z,68.60
2019-02-02T07:07:20.531Z,67.73
2019-02-02T07:10:06.079Z,66.17
2019-02-02T07:12:40.614Z,73.00
2019-02-02T07:15:16.463Z,72.80
2019-02-02T07:17:48.095Z,69.47
2019-02-02T07:20:22.794Z,71.20
2019-02-02T07:22:56.136Z,71.33
2019-02-02T07:36:09.946Z,79.07
2019-02-02T07:38:45.028Z,79.70
2019-02-02T07:41:16.990Z,83.33
2019-02-02T07:43:48.628Z,80.27
2019-02-02T07:46:20.268Z,84.27
2019-02-02T07:48:58.849Z,85.60
2019-02-02T07:51:30.483Z,84.30
2019-02-02T07:54:04.930Z,80.43
2019-02-02T07:59:16.915Z,80.00
2019-02-02T08:02:00.832Z,87.00
2019-02-02T08:04:34.197Z,91.03
2019-02-02T08:07:05.935Z,87.77
2019-02-02T08:09:38.996Z,93.03
2019-02-02T08:12:10.874Z,93.43
2019-02-02T08:14:42.240Z,94.83
2019-02-02T08:17:13.911Z,102.00
2019-02-02T08:19:45.486Z,102.07
2019-02-02T08:22:16.817Z,97.73
2019-02-02T08:24:48.182Z,95.40
2019-02-02T08:27:19.767Z,95.13
2019-02-02T08:29:51.251Z,101.33
2019-02-02T08:32:22.904Z,118.37
2019-02-02T08:34:54.503Z,106.23
2019-02-02T08:37:27.801Z,95.70
2019-02-02T08:39:59.374Z,105.67
2019-02-02T08:42:30.784Z,106.07
2019-02-02T08:45:10.260Z,97.17
2019-02-02T08:47:42.255Z,99.27
2019-02-02T08:50:27.734Z,99.60
2019-02-02T08:53:01.301Z,104.90
2019-02-02T08:55:46.838Z,107.07
2019-02-02T08:58:18.383Z,116.53
2019-02-02T09:00:50.048Z,107.17
2019-02-02T09:03:22.823Z,105.70
2019-02-02T09:05:55.388Z,107.70
2019-02-02T09:08:27.546Z,108.50
2019-02-02T09:10:59.339Z,99.37
2019-02-02T09:13:31.855Z,96.10
2019-02-02T09:16:03.800Z,98.77
2019-02-02T09:18:35.713Z,101.87
2019-02-02T09:23:37.529Z,87.00
2019-02-02T09:26:10.060Z,97.87
2019-02-02T09:28:41.505Z,99.70
2019-02-02T09:31:31.155Z,92.47
2019-02-02T09:34:02.689Z,86.50
2019-02-02T09:36:34.301Z,89.87
2019-02-02T09:39:13.388Z,86.20
2019-02-02T09:41:44.772Z,95.30
2019-02-02T09:44:16.275Z,87.40
2019-02-02T09:46:50.464Z,80.47
2019-02-02T09:49:21.875Z,78.60
2019-02-02T09:51:53.469Z,73.43
2019-02-02T09:54:26.665Z,66.83
2019-02-02T09:56:57.900Z,70.57
2019-02-02T09:59:29.291Z,67.23
2019-02-02T10:02:00.729Z,60.80
2019-02-02T10:04:32.298Z,60.40
2019-02-02T10:07:03.677Z,55.93
2019-02-02T10:09:35.610Z,57.00
2019-02-02T10:12:07.093Z,56.27
2019-02-02T10:14:41.773Z,60.70
2019-02-02T10:17:13.196Z,53.07
2019-02-02T10:19:44.576Z,52.07
2019-02-02T10:22:16.144Z,54.73
2019-02-02T10:24:49.098Z,46.28
2019-02-02T10:27:20.628Z,57.63
2019-02-02T10:29:52.382Z,56.30
2019-02-02T10:32:28.198Z,50.33
2019-02-02T10:35:05.826Z,48.57
2019-02-02T10:37:40.452Z,47.43
2019-02-02T10:40:15.535Z,44.63
2019-02-02T10:42:47.054Z,45.03
2019-02-02T10:45:19.810Z,42.80
2019-02-02T10:47:53.050Z,44.90
2019-02-02T10:50:30.196Z,50.77
2019-02-02T10:53:01.799Z,44.20
2019-02-02T10:55:33.659Z,47.13
2019-02-02T10:58:06.149Z,39.18
2019-02-02T11:00:40.299Z,46.90
2019-02-02T11:03:11.786Z,46.30
2019-02-02T11:05:43.814Z,44.45
2019-02-02T11:08:15.518Z,47.70
2019-02-02T11:10:47.317Z,45.90
2019-02-02T11:13:18.850Z,44.65
2019-02-02T11:15:50.363Z,41.20
2019-02-02T11:18:21.949Z,43.17
2019-02-02T11:20:53.620Z,38.60
2019-02-02T11:23:25.918Z,38.85
2019-02-02T11:25:57.371Z,39.00
2019-02-02T11:28:29.012Z,43.28
2019-02-02T11:31:00.668Z,42.50
2019-02-02T11:33:32.369Z,43.33
2019-02-02T11:36:04.063Z,42.70
2019-02-02T11:38:35.393Z,45.10
2019-02-02T11:41:07.032Z,40.88
2019-02-02T11:43:38.379Z,44.80
2019-02-02T11:46:09.982Z,45.45
2019-02-02T11:48:41.296Z,45.58
2019-02-02T11:51:12.765Z,41.88
2019-02-02T11:53:44.230Z,40.90
2019-02-02T11:56:17.158Z,41.98
2019-02-02T11:58:48.573Z,41.48
2019-02-02T12:01:20.113Z,44.40
2019-02-02T12:03:57.861Z,43.90
2019-02-02T12:06:28.201Z,41.08
2019-02-02T12:08:59.696Z,41.95
2019-02-02T12:11:29.455Z,39.15
2019-02-02T12:14:02.635Z,41.18
2019-02-02T12:16:34.072Z,42.10
2019-02-02T12:19:08.371Z,37.53
2019-02-02T12:21:39.896Z,37.80
2019-02-02T12:24:14.365Z,35.03
2019-02-02T12:26:46.087Z,34.50
2019-02-02T12:29:20.758Z,33.75
2019-02-02T12:31:52.334Z,38.30
2019-02-02T12:34:23.737Z,37.33
2019-02-02T12:36:58.978Z,34.50
2019-02-02T12:39:31.108Z,33.58
2019-02-02T12:42:02.638Z,32.78
2019-02-02T12:44:35.683Z,34.40
2019-02-02T12:50:23.911Z,36.38
2019-02-02T12:52:56.873Z,37.75
2019-02-02T12:55:28.412Z,33.98
2019-02-02T12:57:59.935Z,37.28
2019-02-02T13:00:31.463Z,37.45
2019-02-02T13:03:02.937Z,39.88
2019-02-02T13:05:34.556Z,42.65
2019-02-02T13:08:07.010Z,39.63
2019-02-02T13:10:38.534Z,32.23
2019-02-02T13:13:10.846Z,33.28
2019-02-02T13:15:43.862Z,30.72
2019-02-02T13:18:16.203Z,39.18
2019-02-02T13:20:47.772Z,41.00
2019-02-02T13:23:19.030Z,36.90
2019-02-02T13:25:50.462Z,33.35
2019-02-02T13:28:23.830Z,29.63
2019-02-02T13:30:55.469Z,30.32
2019-02-02T13:33:29.445Z,32.33
2019-02-02T13:36:03.516Z,28.73
2019-02-02T13:38:34.998Z,33.45
2019-02-02T13:41:06.652Z,26.42
2019-02-02T13:43:38.159Z,29.67
2019-02-02T13:46:09.676Z,32.25
2019-02-02T13:48:40.995Z,33.58
2019-02-02T13:51:14.277Z,38.17
2019-02-02T13:53:52.417Z,33.30
2019-02-02T13:56:24.111Z,33.13
2019-02-02T13:58:55.544Z,29.63
2019-02-02T14:01:28.555Z,33.90
2019-02-02T14:04:00.218Z,31.10
2019-02-02T14:06:32.313Z,33.45
2019-02-02T14:09:05.400Z,33.75
2019-02-02T14:11:44.356Z,32.67
2019-02-02T14:14:22.136Z,30.75
2019-02-02T14:16:55.422Z,32.50
2019-02-02T14:19:28.599Z,32.65
2019-02-02T14:22:10.425Z,30.52
2019-02-02T14:24:44.253Z,31.68
2019-02-02T14:27:19.187Z,31.57
2019-02-02T14:29:57.100Z,35.85
2019-02-02T14:32:28.447Z,39.78
2019-02-02T14:35:02.707Z,33.02
2019-02-02T14:37:34.949Z,38.35
2019-02-02T14:40:13.085Z,36.77
2019-02-02T14:42:44.541Z,33.05
2019-02-02T14:45:27.065Z,35.65
2019-02-02T14:47:56.469Z,38.80
2019-02-02T14:50:31.935Z,32.47
2019-02-02T14:53:04.401Z,33.87
2019-02-02T14:55:36.098Z,36.48
2019-02-02T14:58:10.806Z,37.48
2019-02-02T15:00:53.727Z,37.88
2019-02-02T15:03:25.770Z,35.85
2019-02-02T15:05:57.065Z,34.78
2019-02-02T15:08:31.708Z,37.25
2019-02-02T15:11:05.183Z,35.55
2019-02-02T15:13:42.840Z,33.25
2019-02-02T15:16:14.411Z,31.62
2019-02-02T15:18:50.898Z,32.93
2019-02-02T15:21:23.106Z,38.33
2019-02-02T15:23:56.282Z,39.60
2019-02-02T15:26:29.581Z,35.98
2019-02-02T15:29:01.031Z,36.80
2019-02-02T15:31:32.333Z,32.90
2019-02-02T15:34:03.818Z,33.53
2019-02-02T15:36:37.382Z,29.60
2019-02-02T15:39:13.440Z,22.30
2019-02-02T15:41:52.922Z,22.07
2019-02-02T15:44:21.203Z,13.72
2019-02-02T15:46:54.229Z,15.75
2019-02-02T15:49:25.640Z,12.43
2019-02-02T15:51:59.604Z,12.43
2019-02-02T15:57:03.809Z,14.65
2019-02-02T15:59:35.088Z,16.32
2019-02-02T16:02:06.686Z,18.15
2019-02-02T16:04:38.120Z,23.22
2019-02-02T16:07:09.456Z,35.48
2019-02-02T16:09:42.359Z,35.55
2019-02-02T16:12:13.563Z,34.30
2019-02-02T16:14:44.863Z,34.95
2019-02-02T16:17:18.048Z,36.35
2019-02-02T16:19:49.399Z,36.95
2019-02-02T16:22:22.284Z,32.78
2019-02-02T16:24:53.631Z,35.68
2019-02-02T16:27:27.267Z,51.28
2019-02-02T16:30:03.813Z,36.03
2019-02-02T16:32:35.196Z,38.33
2019-02-02T16:35:10.792Z,34.50
2019-02-02T16:37:42.090Z,34.48
2019-02-02T16:40:26.232Z,34.03
2019-02-02T16:42:57.958Z,35.35
2019-02-02T16:45:34.842Z,31.75
2019-02-02T16:48:08.285Z,28.80
2019-02-02T16:50:41.151Z,30.62
2019-02-02T16:53:14.445Z,32.88
2019-02-02T16:55:45.793Z,28.17
2019-02-02T16:58:17.083Z,27.77
2019-02-02T17:00:57.244Z,28.90
2019-02-02T17:03:28.686Z,27.35
2019-02-02T17:06:00.117Z,25.77
2019-02-02T17:08:31.436Z,28.92
2019-02-02T17:11:02.747Z,27.62
2019-02-02T17:13:42.748Z,31.60
2019-02-02T17:16:14.180Z,37.48
2019-02-02T17:18:45.510Z,46.60
2019-02-02T17:21:16.859Z,49.63
2019-02-02T17:23:48.184Z,42.90
2019-02-02T17:26:19.609Z,47.20
2019-02-02T17:28:50.962Z,50.35
2019-02-02T17:31:22.406Z,47.43
2019-02-02T17:33:53.764Z,54.25
2019-02-02T17:36:25.183Z,43.02
2019-02-02T17:38:56.627Z,49.70
2019-02-02T17:41:29.786Z,52.93
2019-02-02T17:44:02.293Z,51.48
2019-02-02T17:46:39.899Z,57.73
2019-02-02T17:49:11.403Z,52.60
2019-02-02T17:51:42.896Z,50.67
2019-02-02T17:54:14.298Z,45.60
2019-02-02T17:56:51.560Z,41.37
2019-02-02T17:59:22.920Z,41.87
2019-02-02T18:01:54.551Z,40.00
2019-02-02T18:04:26.580Z,54.15
2019-02-02T18:06:59.226Z,56.45
2019-02-02T18:09:31.701Z,42.67
2019-02-02T18:12:15.987Z,43.60
2019-02-02T18:14:48.540Z,46.17
2019-02-02T18:17:21.623Z,38.02
2019-02-02T18:19:53.624Z,36.30
2019-02-02T18:22:25.236Z,38.63
2019-02-02T18:24:56.735Z,37.63
2019-02-02T18:27:28.818Z,38.23
2019-02-02T18:30:16.577Z,36.13
2019-02-02T18:32:48.772Z,27.90
2019-02-02T18:35:20.419Z,24.85
2019-02-02T18:37:52.022Z,24.23
2019-02-02T18:40:27.205Z,24.00
2019-02-02T18:42:59.750Z,20.15
2019-02-02T18:45:32.171Z,19.57
2019-02-02T18:48:03.773Z,19.60
2019-02-02T18:50:38.326Z,19.23
2019-02-02T18:53:09.844Z,17.83
2019-02-02T18:55:55.095Z,18.83
2019-02-02T18:58:26.603Z,19.10
2019-02-02T19:00:58.202Z,17.30
2019-02-02T19:03:36.420Z,19.67
2019-02-02T19:06:08.090Z,17.90
2019-02-02T19:08:39.488Z,18.63
2019-02-02T19:11:25.805Z,18.57
2019-02-02T19:13:57.332Z,17.07
2019-02-02T19:16:28.759Z,22.30
2019-02-02T19:19:07.929Z,19.92
2019-02-02T19:21:39.365Z,20.23
2019-02-02T19:24:10.733Z,22.62
2019-02-02T19:26:42.232Z,20.77
2019-02-02T19:29:14.129Z,20.67
2019-02-02T19:31:48.449Z,24.50
2019-02-02T19:34:20.123Z,23.33
2019-02-02T19:36:51.827Z,24.67
2019-02-02T19:39:23.553Z,24.40
2019-02-02T19:41:55.053Z,23.27
2019-02-02T19:44:26.837Z,26.37
2019-02-02T19:46:58.293Z,27.03
2019-02-02T19:49:32.689Z,28.42
2019-02-02T19:52:12.750Z,30.20
2019-02-02T19:54:44.456Z,32.83
2019-02-02T19:57:15.904Z,41.87
2019-02-02T19:59:47.323Z,33.30
2019-02-02T20:02:18.723Z,29.43
2019-02-02T20:04:50.224Z,26.50
2019-02-02T20:07:21.853Z,26.07
2019-02-02T20:09:53.741Z,30.53
2019-02-02T20:12:26.823Z,36.27
2019-02-02T20:15:00.269Z,34.60
2019-02-02T20:17:31.654Z,33.63
2019-02-02T20:20:04.428Z,31.45
2019-02-02T20:22:36.076Z,32.28
2019-02-02T20:25:11.663Z,34.53
2019-02-02T20:27:43.253Z,33.30
2019-02-02T20:30:30.769Z,34.38
2019-02-02T20:33:02.312Z,36.63
2019-02-02T20:35:42.008Z,34.40
2019-02-02T20:38:18.799Z,39.73
2019-02-02T20:40:50.425Z,36.07
2019-02-02T20:43:21.838Z,36.00
2019-02-02T20:45:53.302Z,37.10
2019-02-02T20:48:24.702Z,38.53
2019-02-02T20:50:56.352Z,37.70
2019-02-02T20:53:28.127Z,39.70
2019-02-02T20:56:00.003Z,38.30
2019-02-02T20:58:31.603Z,37.33
2019-02-02T21:01:03.306Z,35.47
2019-02-02T21:03:35.131Z,38.47
2019-02-02T21:06:09.535Z,36.63
2019-02-02T21:08:41.032Z,36.70
2019-02-02T21:11:12.508Z,35.08
2019-02-02T21:13:43.992Z,37.47
2019-02-02T21:16:17.043Z,38.93
2019-02-02T21:18:48.452Z,39.63
2019-02-02T21:21:20.100Z,43.05
2019-02-02T21:23:51.543Z,42.13
2019-02-02T21:26:24.158Z,43.27
2019-02-02T21:28:55.594Z,41.90
2019-02-02T21:31:29.932Z,40.03
2019-02-02T21:34:01.360Z,38.02
2019-02-02T21:36:34.122Z,35.87
2019-02-02T21:39:07.596Z,36.40
2019-02-02T21:41:43.363Z,35.00
2019-02-02T21:44:18.401Z,35.77
2019-02-02T21:46:50.203Z,38.20
2019-02-02T21:49:21.626Z,38.27
2019-02-02T21:51:53.161Z,38.17
2019-02-02T21:54:25.841Z,38.53
2019-02-02T21:56:57.396Z,39.33
2019-02-02T21:59:29.518Z,39.30
2019-02-02T22:02:01.249Z,38.10
2019-02-02T22:04:32.927Z,37.40
2019-02-02T22:07:06.128Z,35.77
2019-02-02T22:09:37.788Z,40.33
2019-02-02T22:12:09.256Z,39.97
2019-02-02T22:14:40.585Z,42.83
2019-02-02T22:17:12.045Z,42.60
2019-02-02T22:19:43.426Z,37.45
2019-02-02T22:22:14.967Z,37.67
2019-02-02T22:24:46.347Z,41.27
2019-02-02T22:27:17.835Z,38.77
2019-02-02T22:29:50.431Z,43.57
2019-02-02T22:32:22.163Z,42.33
2019-02-02T22:34:53.576Z,38.43
2019-02-02T22:37:25.116Z,40.67
2019-02-02T22:39:56.468Z,36.73
2019-02-02T22:42:27.824Z,33.00
2019-02-02T22:44:59.107Z,30.70
2019-02-02T22:47:30.507Z,34.43
2019-02-02T22:50:01.825Z,29.23
2019-02-02T22:52:34.476Z,27.83
2019-02-02T22:55:13.653Z,26.20
2019-02-02T22:57:45.139Z,25.53
2019-02-02T23:01:00.078Z,22.73
2019-02-02T23:03:45.601Z,23.63
2019-02-02T23:06:39.624Z,21.33
2019-02-02T23:09:44.940Z,20.80
2019-02-02T23:12:23.640Z,21.87
2019-02-02T23:15:33.283Z,22.83
2019-02-02T23:18:04.918Z,19.87
2019-02-02T23:20:36.326Z,18.67
2019-02-02T23:23:07.823Z,23.47
2019-02-02T23:25:39.239Z,20.10
2019-02-02T23:28:10.722Z,22.00
2019-02-02T23:30:42.057Z,19.20
2019-02-02T23:33:13.345Z,22.13
2019-02-02T23:35:44.768Z,21.90
2019-02-02T23:38:16.519Z,20.17
2019-02-02T23:40:49.533Z,20.10
2019-02-02T23:43:20.916Z,18.80
2019-02-02T23:45:52.311Z,21.37
2019-02-02T23:48:23.680Z,19.50
2019-02-02T23:50:54.939Z,22.70
2019-02-02T23:53:26.323Z,20.27
2019-02-02T23:55:57.678Z,20.57
2019-02-02T23:58:29.335Z,19.73
